Time;durP1;ratioP1;P1;durP2;ratioP2;P2;SDS_P1;SDS_P2;PMS_P1;PMS_P2;Temp;Humidity;BMP_temperature;BMP_pressure;BME280_temperature;BME280_humidity;BME280_pressure;Samples;Min_cycle;Max_cycle;Signal;HPM_P1;HPM_P2
2023/03/20 00:01:23;;;;;;;1.65;1.00;;;7.40;99.90;;;;;;4970618;28;20067;-81
2023/03/20 00:03:50;;;;;;;1.40;1.30;;;7.40;99.90;;;;;;4964426;28;20034;-80
2023/03/20 00:06:34;;;;;;;1.27;1.10;;;7.40;99.90;;;;;;4977054;28;20031;-80
2023/03/20 00:09:01;;;;;;;1.48;1.38;;;7.40;99.90;;;;;;4978794;28;20030;-81
2023/03/20 00:11:39;;;;;;;2.15;1.30;;;7.40;99.90;;;;;;4982460;28;20073;-80
2023/03/20 00:14:11;;;;;;;1.00;1.00;;;7.40;99.90;;;;;;4972078;28;20045;-79
2023/03/20 00:16:41;;;;;;;1.40;1.13;;;7.40;99.90;;;;;;4993930;28;20117;-80
2023/03/20 00:19:24;;;;;;;1.73;1.33;;;7.40;99.90;;;;;;4974552;28;20045;-80
2023/03/20 00:21:52;;;;;;;1.27;1.13;;;7.40;99.90;;;;;;4943115;28;20027;-80
2023/03/20 00:24:18;;;;;;;1.15;1.05;;;7.40;99.90;;;;;;4947889;28;20117;-81
2023/03/20 00:26:46;;;;;;;1.50;1.40;;;7.40;99.90;;;;;;4973599;28;20053;-80
2023/03/20 00:29:18;;;;;;;2.88;1.50;;;7.40;99.90;;;;;;4984863;28;20039;-80
2023/03/20 00:31:44;;;;;;;1.40;1.30;;;7.40;99.90;;;;;;4986129;28;20031;-80
2023/03/20 00:34:12;;;;;;;1.50;1.30;;;7.40;99.90;;;;;;4946366;28;20061;-80
2023/03/20 00:36:39;;;;;;;2.42;1.45;;;7.30;99.90;;;;;;4947092;28;20039;-80
2023/03/20 00:39:04;;;;;;;2.03;1.52;;;7.30;99.90;;;;;;4971639;28;20080;-80
2023/03/20 00:41:40;;;;;;;1.60;1.45;;;7.30;99.90;;;;;;4954573;28;20451;-81
2023/03/20 00:44:31;;;;;;;1.63;1.52;;;7.30;99.90;;;;;;4974768;28;20384;-81
2023/03/20 00:47:00;;;;;;;2.45;1.73;;;7.30;99.90;;;;;;4968499;28;20053;-81
2023/03/20 00:49:32;;;;;;;1.83;1.73;;;7.30;99.90;;;;;;4944501;28;20035;-81
2023/03/20 00:52:00;;;;;;;2.90;1.50;;;7.30;99.90;;;;;;4955019;29;20491;-81
2023/03/20 00:54:26;;;;;;;2.25;1.88;;;7.20;99.90;;;;;;4959371;28;20085;-82
2023/03/20 00:57:12;;;;;;;2.38;2.00;;;7.30;99.90;;;;;;4978493;28;20041;-82
2023/03/20 00:59:40;;;;;;;;;;;7.20;99.90;;;;;;4996070;28;20026;-80
2023/03/20 01:02:07;;;;;;;2.15;1.80;;;7.20;99.90;;;;;;4961744;28;20025;-82
2023/03/20 01:04:39;;;;;;;2.00;1.80;;;7.20;99.90;;;;;;4958924;28;20031;-81
2023/03/20 01:07:06;;;;;;;4.57;2.10;;;7.20;99.90;;;;;;4987236;28;20428;-80
2023/03/20 01:09:32;;;;;;;2.00;1.80;;;7.20;99.90;;;;;;4995297;28;20491;-81
2023/03/20 01:12:02;;;;;;;1.80;1.70;;;7.20;99.90;;;;;;4975576;28;20031;-81
2023/03/20 01:14:28;;;;;;;2.08;1.88;;;7.30;99.90;;;;;;4961473;28;20474;-81
2023/03/20 01:16:54;;;;;;;2.58;1.73;;;7.30;99.90;;;;;;4968551;28;20074;-81
2023/03/20 01:19:20;;;;;;;4.40;1.80;;;7.40;99.90;;;;;;4967552;28;20110;-82
2023/03/20 01:21:46;;;;;;;2.10;1.90;;;7.40;99.90;;;;;;4975033;28;20066;-82
2023/03/20 01:24:12;;;;;;;2.00;1.83;;;7.40;99.90;;;;;;4943055;28;20073;-81
2023/03/20 01:26:41;;;;;;;2.78;2.00;;;7.40;99.90;;;;;;4970573;28;20042;-81
2023/03/20 01:29:20;;;;;;;2.40;2.17;;;7.40;99.90;;;;;;4997714;28;20375;-83
2023/03/20 01:31:48;;;;;;;2.40;2.20;;;7.40;99.90;;;;;;4953670;28;20039;-82
2023/03/20 01:34:15;;;;;;;2.50;2.30;;;7.50;99.90;;;;;;4957349;28;20039;-81
2023/03/20 01:36:47;;;;;;;2.47;2.25;;;7.50;99.90;;;;;;4953560;28;20031;-81
2023/03/20 01:39:13;;;;;;;2.35;2.15;;;7.50;99.90;;;;;;4942683;28;20027;-81
2023/03/20 01:41:39;;;;;;;2.55;2.35;;;7.50;99.90;;;;;;4979006;28;20039;-81
2023/03/20 01:44:21;;;;;;;2.50;2.30;;;7.50;99.90;;;;;;4966558;28;20107;-81
2023/03/20 01:46:51;;;;;;;3.25;2.95;;;7.50;99.90;;;;;;4990722;28;20547;-80
2023/03/20 01:49:18;;;;;;;2.67;2.22;;;7.40;99.90;;;;;;4980506;28;20030;-80
2023/03/20 01:51:46;;;;;;;2.55;2.35;;;7.40;99.90;;;;;;4985829;28;20038;-79
2023/03/20 01:54:18;;;;;;;2.70;2.50;;;7.40;99.90;;;;;;4985344;28;20031;-80
2023/03/20 01:57:13;;;;;;;2.00;1.80;;;7.40;99.90;;;;;;4959484;28;20046;-80
2023/03/20 01:59:48;;;;;;;2.80;2.50;;;7.40;99.90;;;;;;4946277;28;20171;-79
2023/03/20 02:02:20;;;;;;;2.28;2.08;;;7.40;99.90;;;;;;4973996;28;20030;-79
2023/03/20 02:04:50;;;;;;;2.55;2.35;;;7.40;99.90;;;;;;4971264;28;20042;-80
2023/03/20 02:07:20;;;;;;;2.60;2.40;;;7.30;99.90;;;;;;4959589;28;20062;-81
2023/03/20 02:10:03;;;;;;;5.88;2.72;;;7.30;99.90;;;;;;4967189;28;20037;-81
2023/03/20 02:12:40;;;;;;;3.42;2.95;;;7.30;99.90;;;;;;4960997;28;20468;-80
2023/03/20 02:15:10;;;;;;;3.08;2.78;;;7.30;99.90;;;;;;4954329;28;20062;-80
2023/03/20 02:17:56;;;;;;;3.55;2.85;;;7.30;99.90;;;;;;4956736;28;20130;-81
2023/03/20 02:20:49;;;;;;;5.22;2.70;;;7.30;99.90;;;;;;4950916;28;20043;-80
2023/03/20 02:23:48;;;;;;;3.65;2.95;;;7.30;99.90;;;;;;4995271;28;20077;-80
2023/03/20 02:26:29;;;;;;;3.20;2.88;;;7.30;99.90;;;;;;4989510;28;20124;-82
2023/03/20 02:29:28;;;;;;;3.20;2.90;;;7.30;99.90;;;;;;4957472;29;20031;-80
2023/03/20 02:31:55;;;;;;;3.30;3.00;;;7.30;99.90;;;;;;4964335;28;20403;-79
2023/03/20 02:34:21;;;;;;;3.38;3.08;;;7.30;99.90;;;;;;4979532;28;20026;-80
2023/03/20 02:37:22;;;;;;;5.10;3.35;;;7.30;99.90;;;;;;4989366;28;20034;-80
2023/03/20 02:40:13;;;;;;;3.95;3.20;;;7.30;99.90;;;;;;4944991;28;20042;-80
2023/03/20 02:43:19;;;;;;;4.60;3.05;;;7.40;99.90;;;;;;4966677;28;20031;-79
2023/03/20 02:46:12;;;;;;;3.17;2.88;;;7.30;99.90;;;;;;4972738;28;20093;-80
2023/03/20 02:48:54;;;;;;;3.13;2.90;;;7.30;99.90;;;;;;4994319;28;20057;-80
2023/03/20 02:51:24;;;;;;;5.05;3.42;;;7.30;99.90;;;;;;4978141;28;20036;-81
2023/03/20 02:54:05;;;;;;;4.20;3.83;;;7.30;99.90;;;;;;4979094;28;20084;-79
2023/03/20 02:57:06;;;;;;;5.03;3.25;;;7.30;99.90;;;;;;4975349;28;20058;-80
2023/03/20 03:00:11;;;;;;;4.68;3.15;;;7.30;99.90;;;;;;4967326;28;20491;-80
2023/03/20 03:02:55;;;;;;;4.50;3.33;;;7.30;99.90;;;;;;4976052;28;20391;-79
2023/03/20 03:05:29;;;;;;;4.00;3.35;;;7.30;99.90;;;;;;4977489;28;20041;-80
2023/03/20 03:07:58;;;;;;;3.42;3.13;;;7.30;99.90;;;;;;4993623;28;20498;-79
2023/03/20 03:10:38;;;;;;;2.15;1.70;;;7.30;99.90;;;;;;4974671;28;20030;-80
2023/03/20 03:13:14;;;;;;;2.13;1.63;;;7.30;99.90;;;;;;4965618;28;20590;-81
2023/03/20 03:15:43;;;;;;;2.28;2.08;;;7.20;99.90;;;;;;4960257;28;20037;-79
2023/03/20 03:18:19;;;;;;;3.75;2.40;;;7.20;99.90;;;;;;4954969;29;20090;-79
2023/03/20 03:20:49;;;;;;;3.78;2.80;;;7.20;99.90;;;;;;4928059;28;20129;-80
2023/03/20 03:23:25;;;;;;;3.17;2.83;;;7.10;99.90;;;;;;4951137;29;20519;-80
2023/03/20 03:25:56;;;;;;;4.03;3.60;;;7.10;99.90;;;;;;4966592;28;20027;-80
2023/03/20 03:28:35;;;;;;;3.88;3.40;;;7.10;99.90;;;;;;4957919;28;20038;-81
2023/03/20 03:31:06;;;;;;;4.15;3.63;;;7.10;99.90;;;;;;4969032;28;20091;-80
2023/03/20 03:33:34;;;;;;;5.05;4.25;;;7.10;99.90;;;;;;4977029;28;20038;-79
2023/03/20 03:36:27;;;;;;;6.47;4.63;;;7.10;99.90;;;;;;4974748;28;20529;-81
2023/03/20 03:38:56;;;;;;;7.45;4.50;;;7.10;99.90;;;;;;4972485;28;20031;-82
2023/03/20 03:41:49;;;;;;;5.18;4.68;;;7.10;99.90;;;;;;4978037;28;20049;-79
2023/03/20 03:44:34;;;;;;;5.10;4.43;;;7.10;99.90;;;;;;4941635;28;20737;-82
2023/03/20 03:47:18;;;;;;;9.60;6.63;;;7.10;99.90;;;;;;4966294;28;20027;-79
2023/03/20 03:49:50;;;;;;;6.68;5.38;;;7.20;99.90;;;;;;4974230;28;20053;-79
2023/03/20 03:52:21;;;;;;;7.03;5.95;;;7.20;99.90;;;;;;4953064;28;20030;-80
2023/03/20 03:55:04;;;;;;;10.00;6.50;;;7.10;99.90;;;;;;4971237;28;20267;-81
2023/03/20 03:57:35;;;;;;;9.50;6.75;;;7.20;99.90;;;;;;4951111;28;20061;-80
2023/03/20 04:00:05;;;;;;;8.02;6.28;;;7.20;99.90;;;;;;4959012;28;20031;-79
2023/03/20 04:02:40;;;;;;;9.73;7.25;;;7.20;99.90;;;;;;4956267;28;20039;-81
2023/03/20 04:05:08;;;;;;;10.25;6.93;;;7.30;99.90;;;;;;4958999;28;20022;-81
2023/03/20 04:07:35;;;;;;;9.70;7.30;;;7.30;99.90;;;;;;4976194;28;20603;-80
2023/03/20 04:10:01;;;;;;;8.52;6.88;;;7.30;99.90;;;;;;4968625;28;20490;-81
2023/03/20 04:12:32;;;;;;;9.93;7.40;;;7.20;99.90;;;;;;4973612;28;20503;-80
2023/03/20 04:14:58;;;;;;;12.23;8.00;;;7.20;99.90;;;;;;4990345;28;20030;-80
2023/03/20 04:17:25;;;;;;;10.63;7.85;;;7.20;99.90;;;;;;4967307;28;20030;-82
2023/03/20 04:19:51;;;;;;;10.30;8.00;;;7.20;99.90;;;;;;4956822;28;20083;-81
2023/03/20 04:22:17;;;;;;;11.57;9.05;;;7.10;99.90;;;;;;4953870;28;20084;-82
2023/03/20 04:24:43;;;;;;;11.98;8.63;;;7.20;99.90;;;;;;4964938;28;20050;-82
2023/03/20 04:27:10;;;;;;;11.98;7.72;;;7.20;99.90;;;;;;4956048;28;20045;-80
2023/03/20 04:29:39;;;;;;;11.38;8.18;;;7.10;99.90;;;;;;4974944;28;20030;-80
2023/03/20 04:32:34;;;;;;;11.43;8.65;;;7.10;99.90;;;;;;4906849;28;20052;-81
2023/03/20 04:35:21;;;;;;;9.98;8.15;;;7.20;99.90;;;;;;4942465;28;20130;-81
2023/03/20 04:37:50;;;;;;;10.77;7.68;;;7.10;99.90;;;;;;4974754;28;20081;-80
2023/03/20 04:40:18;;;;;;;10.50;7.60;;;7.10;99.90;;;;;;4973977;28;20054;-80
2023/03/20 04:42:44;;;;;;;10.23;8.10;;;7.20;99.90;;;;;;4989413;28;20039;-80
2023/03/20 04:45:10;;;;;;;10.40;7.60;;;7.20;99.90;;;;;;4950216;28;20035;-80
2023/03/20 04:47:37;;;;;;;12.38;9.02;;;7.10;99.90;;;;;;4938650;28;20077;-79
2023/03/20 04:50:05;;;;;;;11.27;8.57;;;7.10;99.90;;;;;;4954690;28;20201;-80
2023/03/20 04:52:31;;;;;;;11.80;8.63;;;7.20;99.90;;;;;;4957389;28;20049;-80
2023/03/20 04:54:56;;;;;;;12.13;9.35;;;7.20;99.90;;;;;;4990349;28;20113;-81
2023/03/20 04:57:23;;;;;;;11.70;9.05;;;7.20;99.90;;;;;;4954150;28;20066;-81
2023/03/20 04:59:49;;;;;;;11.10;9.15;;;7.20;99.90;;;;;;4958664;28;20035;-82
2023/03/20 05:02:16;;;;;;;14.23;9.38;;;7.20;99.90;;;;;;4964577;28;20023;-80
2023/03/20 05:04:42;;;;;;;13.15;9.65;;;7.20;99.90;;;;;;4966533;28;20042;-82
2023/03/20 05:07:09;;;;;;;14.98;9.93;;;7.30;99.90;;;;;;4946155;28;20027;-81
2023/03/20 05:09:47;;;;;;;14.02;10.18;;;7.30;99.90;;;;;;4956493;28;20039;-80
2023/03/20 05:12:14;;;;;;;12.35;10.10;;;7.30;99.90;;;;;;4953553;28;20035;-81
2023/03/20 05:15:01;;;;;;;14.02;11.10;;;7.30;99.90;;;;;;4952759;28;20407;-80
2023/03/20 05:17:39;;;;;;;14.80;11.30;;;7.30;99.90;;;;;;4975416;28;20070;-80
2023/03/20 05:20:37;;;;;;;13.07;10.68;;;7.40;99.90;;;;;;4969223;28;20653;-80
2023/03/20 05:23:08;;;;;;;16.15;11.32;;;7.30;99.90;;;;;;4944909;28;20109;-80
2023/03/20 05:25:54;;;;;;;15.77;11.02;;;7.40;99.90;;;;;;4980174;28;20520;-80
2023/03/20 05:28:31;;;;;;;16.08;12.15;;;7.40;99.90;;;;;;4944725;28;20541;-81
2023/03/20 05:31:20;;;;;;;14.10;10.98;;;7.50;99.90;;;;;;4974209;28;20047;-81
2023/03/20 05:34:06;;;;;;;15.00;11.32;;;7.50;99.90;;;;;;4971176;28;20039;-80
2023/03/20 05:36:41;;;;;;;15.27;10.73;;;7.50;99.90;;;;;;4955823;28;20065;-79
2023/03/20 05:39:27;;;;;;;14.85;11.07;;;7.50;99.90;;;;;;4969460;28;20050;-80
2023/03/20 05:42:05;;;;;;;15.10;10.35;;;7.50;99.90;;;;;;4948073;28;20034;-79
2023/03/20 05:44:51;;;;;;;31.83;10.02;;;7.50;99.90;;;;;;4905286;28;20039;-80
2023/03/20 05:47:36;;;;;;;38.53;8.88;;;7.50;99.90;;;;;;4963341;28;20529;-81
2023/03/20 05:50:21;;;;;;;13.48;9.55;;;7.50;99.90;;;;;;4984195;28;20115;-82
2023/03/20 05:52:58;;;;;;;15.57;8.38;;;7.50;99.90;;;;;;4956817;28;20045;-81
2023/03/20 05:55:43;;;;;;;17.42;10.30;;;7.40;99.90;;;;;;4966853;28;20514;-80
2023/03/20 05:58:27;;;;;;;15.30;10.57;;;7.40;99.90;;;;;;4977583;28;20088;-80
2023/03/20 06:00:59;;;;;;;22.67;11.20;;;7.40;99.90;;;;;;4973627;28;20045;-79
2023/03/20 06:03:44;;;;;;;18.40;9.07;;;7.40;99.90;;;;;;4979419;28;20065;-80
2023/03/20 06:06:15;;;;;;;15.45;11.43;;;7.40;99.90;;;;;;4978788;28;20041;-81
2023/03/20 06:08:45;;;;;;;17.58;12.52;;;7.40;99.90;;;;;;4958851;28;20034;-80
2023/03/20 06:11:11;;;;;;;20.95;11.70;;;7.50;99.90;;;;;;4975589;28;20031;-82
2023/03/20 06:13:38;;;;;;;18.02;12.88;;;7.50;99.90;;;;;;4929940;28;20034;-82
2023/03/20 06:16:05;;;;;;;18.75;13.48;;;7.50;99.90;;;;;;4943677;28;20058;-81
2023/03/20 06:18:31;;;;;;;18.40;12.48;;;7.50;99.90;;;;;;4974077;28;20402;-80
2023/03/20 06:20:57;;;;;;;17.95;12.18;;;7.50;99.90;;;;;;4958916;28;20564;-81
2023/03/20 06:23:26;;;;;;;65.07;11.40;;;7.50;99.90;;;;;;4937771;28;20027;-81
2023/03/20 06:25:52;;;;;;;25.63;8.98;;;7.60;99.90;;;;;;4967612;28;20049;-81
2023/03/20 06:28:20;;;;;;;35.67;6.68;;;7.60;99.90;;;;;;4968049;28;20039;-80
2023/03/20 06:30:52;;;;;;;15.77;8.25;;;7.60;99.90;;;;;;4963514;28;20041;-80
2023/03/20 06:33:19;;;;;;;28.83;7.40;;;7.60;99.90;;;;;;4972634;28;20455;-80
2023/03/20 06:35:56;;;;;;;35.20;7.95;;;7.60;99.90;;;;;;4974376;28;20039;-82
2023/03/20 06:38:23;;;;;;;25.88;7.07;;;7.60;99.90;;;;;;4961908;28;20038;-80
2023/03/20 06:40:49;;;;;;;216.80;14.80;;;7.50;99.90;;;;;;4948401;28;20054;-81
2023/03/20 06:43:17;;;;;;;201.65;15.15;;;7.60;99.90;;;;;;4954160;28;20057;-80
2023/03/20 06:45:48;;;;;;;162.70;15.82;;;7.60;99.90;;;;;;4946072;28;20027;-80
2023/03/20 06:48:24;;;;;;;19.83;12.90;;;7.60;99.90;;;;;;4966030;28;20030;-79
2023/03/20 06:50:51;;;;;;;25.20;11.88;;;7.70;99.90;;;;;;4953671;28;20043;-80
2023/03/20 06:53:19;;;;;;;20.08;13.40;;;7.70;99.90;;;;;;4950347;28;20034;-81
2023/03/20 06:56:11;;;;;;;29.55;13.27;;;7.80;99.90;;;;;;4970389;28;20125;-79
2023/03/20 06:58:39;;;;;;;17.27;13.00;;;7.80;99.90;;;;;;4945423;28;20034;-80
2023/03/20 07:01:14;;;;;;;14.70;10.93;;;7.80;99.90;;;;;;4955184;28;20030;-80
2023/03/20 07:03:40;;;;;;;18.48;11.45;;;7.80;99.90;;;;;;4971220;28;20518;-80
2023/03/20 07:06:08;;;;;;;20.55;12.88;;;7.90;99.90;;;;;;4957049;28;20035;-80
2023/03/20 07:08:35;;;;;;;17.83;13.40;;;7.90;99.90;;;;;;4947115;28;20031;-81
2023/03/20 07:11:03;;;;;;;20.50;13.18;;;7.90;99.90;;;;;;4966139;28;20023;-80
2023/03/20 07:13:30;;;;;;;24.45;13.45;;;7.90;99.90;;;;;;4965193;28;20062;-80
2023/03/20 07:16:00;;;;;;;20.45;13.88;;;8.00;99.90;;;;;;4963812;28;20057;-80
2023/03/20 07:18:26;;;;;;;44.83;14.23;;;8.00;99.90;;;;;;4943525;28;20066;-80
2023/03/20 07:20:53;;;;;;;72.63;14.32;;;8.10;99.90;;;;;;4951612;28;20027;-80
2023/03/20 07:23:19;;;;;;;22.88;13.40;;;8.10;99.90;;;;;;4962542;28;20022;-82
2023/03/20 07:25:45;;;;;;;22.83;14.50;;;8.20;99.90;;;;;;4970944;28;20069;-80
2023/03/20 07:28:15;;;;;;;24.65;16.08;;;8.20;99.90;;;;;;4933222;28;20165;-81
2023/03/20 07:30:44;;;;;;;24.50;15.18;;;8.20;99.90;;;;;;4948179;28;20518;-79
2023/03/20 07:33:14;;;;;;;22.92;15.45;;;8.30;99.90;;;;;;4959825;28;20098;-81
2023/03/20 07:35:40;;;;;;;24.63;16.30;;;8.30;99.90;;;;;;4951380;28;20533;-81
2023/03/20 07:38:07;;;;;;;20.10;14.90;;;8.40;99.90;;;;;;4938938;28;20399;-80
2023/03/20 07:40:36;;;;;;;22.45;14.35;;;8.50;99.90;;;;;;4961028;28;20031;-80
2023/03/20 07:43:07;;;;;;;20.88;13.90;;;8.50;99.90;;;;;;4942453;28;20058;-81
2023/03/20 07:45:51;;;;;;;26.42;15.98;;;8.50;99.90;;;;;;4959883;28;20177;-80
2023/03/20 07:48:18;;;;;;;21.58;14.93;;;8.60;99.90;;;;;;4944471;28;20035;-82
2023/03/20 07:50:45;;;;;;;26.05;16.80;;;8.60;99.90;;;;;;4964597;28;20427;-81
2023/03/20 07:53:10;;;;;;;23.88;15.40;;;8.60;99.90;;;;;;4944267;28;20034;-80
2023/03/20 07:55:36;;;;;;;23.15;14.90;;;8.70;99.90;;;;;;4947447;28;20041;-80
2023/03/20 07:58:02;;;;;;;23.45;14.52;;;8.80;99.90;;;;;;4963465;28;20034;-81
2023/03/20 08:00:28;;;;;;;23.80;15.68;;;8.80;99.90;;;;;;4951490;28;20403;-80
2023/03/20 08:02:55;;;;;;;22.00;15.18;;;8.80;99.90;;;;;;4968968;28;20500;-80
2023/03/20 08:05:22;;;;;;;23.38;15.98;;;8.80;99.90;;;;;;4957441;28;20603;-80
2023/03/20 08:07:48;;;;;;;24.67;15.27;;;8.80;99.90;;;;;;4959604;28;20133;-82
2023/03/20 08:10:14;;;;;;;24.02;16.20;;;8.80;99.90;;;;;;4947707;28;20085;-80
2023/03/20 08:12:40;;;;;;;22.85;14.80;;;8.80;99.90;;;;;;4943443;28;20046;-81
2023/03/20 08:15:06;;;;;;;19.02;12.85;;;8.90;99.90;;;;;;4967461;28;20109;-80
2023/03/20 08:17:32;;;;;;;25.45;14.95;;;8.80;99.90;;;;;;4970031;28;20035;-80
2023/03/20 08:19:58;;;;;;;21.85;15.00;;;8.90;99.90;;;;;;4949824;28;20027;-80
2023/03/20 08:22:24;;;;;;;21.20;14.20;;;8.90;99.90;;;;;;4931473;28;20031;-81
2023/03/20 08:24:50;;;;;;;22.48;14.00;;;8.90;99.90;;;;;;4954508;28;20030;-80
2023/03/20 08:27:16;;;;;;;26.67;16.58;;;8.90;99.90;;;;;;4937764;28;20038;-80
2023/03/20 08:29:41;;;;;;;25.80;15.13;;;8.90;99.90;;;;;;4972317;28;20181;-82
2023/03/20 08:32:07;;;;;;;24.75;15.35;;;8.90;99.90;;;;;;4953121;28;20074;-80
2023/03/20 08:34:33;;;;;;;23.42;15.15;;;9.00;99.90;;;;;;4964569;28;20074;-82
2023/03/20 08:37:01;;;;;;;25.30;15.57;;;9.00;99.90;;;;;;4971949;28;20654;-80
2023/03/20 08:39:27;;;;;;;24.85;15.23;;;9.00;99.90;;;;;;4972024;28;20316;-82
2023/03/20 08:41:52;;;;;;;23.80;15.35;;;9.00;99.90;;;;;;4933423;28;20038;-81
2023/03/20 08:44:18;;;;;;;25.13;16.45;;;9.00;99.90;;;;;;4954512;28;20041;-82
2023/03/20 08:46:45;;;;;;;21.67;14.25;;;9.00;99.90;;;;;;4965917;28;20031;-80
2023/03/20 08:49:11;;;;;;;26.77;16.27;;;9.10;99.90;;;;;;4945030;29;20036;-82
2023/03/20 08:51:36;;;;;;;25.83;14.90;;;9.10;99.90;;;;;;4959998;28;20029;-81
2023/03/20 08:54:02;;;;;;;25.50;16.15;;;9.10;99.90;;;;;;4938353;28;20449;-80
2023/03/20 08:56:28;;;;;;;23.30;14.93;;;9.10;99.90;;;;;;4954550;28;20062;-79
2023/03/20 08:58:54;;;;;;;24.83;15.80;;;9.20;99.90;;;;;;4953511;28;20053;-79
2023/03/20 09:01:20;;;;;;;26.95;15.52;;;9.20;99.90;;;;;;4944764;28;20555;-81
2023/03/20 09:03:46;;;;;;;24.45;15.88;;;9.30;99.90;;;;;;4976101;28;20031;-80
2023/03/20 09:06:11;;;;;;;26.00;16.67;;;9.30;99.90;;;;;;4956061;28;20588;-81
2023/03/20 09:08:38;;;;;;;22.70;14.90;;;9.40;99.90;;;;;;4971906;28;20043;-80
2023/03/20 09:11:04;;;;;;;24.15;15.48;;;9.40;99.90;;;;;;4974817;28;20045;-79
2023/03/20 09:13:30;;;;;;;25.88;15.90;;;9.40;99.90;;;;;;4982002;28;20125;-82
2023/03/20 09:15:57;;;;;;;27.10;15.63;;;9.40;99.90;;;;;;4950155;28;20061;-81
2023/03/20 09:18:23;;;;;;;22.55;15.35;;;9.40;99.90;;;;;;4983478;28;20035;-80
2023/03/20 09:20:49;;;;;;;23.70;15.35;;;9.50;99.90;;;;;;4971561;28;20403;-79
2023/03/20 09:23:16;;;;;;;22.90;14.82;;;9.50;99.90;;;;;;4964169;28;20031;-80
2023/03/20 09:25:41;;;;;;;24.50;15.20;;;9.50;99.90;;;;;;4979052;28;20042;-81
2023/03/20 09:28:07;;;;;;;22.55;15.00;;;9.60;99.90;;;;;;4975846;28;20123;-81
2023/03/20 09:30:33;;;;;;;22.20;14.80;;;9.60;99.90;;;;;;4971484;28;20524;-80
2023/03/20 09:32:59;;;;;;;24.33;16.30;;;9.60;99.90;;;;;;4963342;28;20097;-81
2023/03/20 09:35:25;;;;;;;23.83;15.15;;;9.60;99.90;;;;;;4974114;28;20043;-78
2023/03/20 09:37:51;;;;;;;20.25;14.48;;;9.60;99.90;;;;;;4967866;28;20046;-79
2023/03/20 09:40:26;;;;;;;21.60;14.35;;;9.60;99.90;;;;;;4957602;28;20496;-79
2023/03/20 09:42:51;;;;;;;21.95;14.88;;;9.50;99.90;;;;;;4995283;28;20041;-78
2023/03/20 09:45:20;;;;;;;21.88;14.00;;;9.50;99.90;;;;;;4982815;28;20042;-80
2023/03/20 09:47:49;;;;;;;23.58;15.32;;;9.50;99.90;;;;;;4972806;28;20034;-80
2023/03/20 09:50:33;;;;;;;24.73;16.25;;;9.50;99.90;;;;;;4974961;28;20443;-80
2023/03/20 09:53:24;;;;;;;19.77;14.40;;;9.40;99.90;;;;;;4979210;28;20060;-81
2023/03/20 09:55:52;;;;;;;24.33;16.77;;;9.40;99.90;;;;;;4982543;28;20038;-82
2023/03/20 09:58:30;;;;;;;21.80;15.48;;;9.40;99.90;;;;;;4954706;28;20038;-79
2023/03/20 10:00:58;;;;;;;22.35;15.00;;;9.40;99.90;;;;;;4967257;28;20026;-81
2023/03/20 10:03:47;;;;;;;18.98;14.45;;;9.40;99.90;;;;;;4972755;28;20034;-79
2023/03/20 10:06:15;;;;;;;22.95;16.00;;;9.40;99.90;;;;;;4971953;28;20027;-81
2023/03/20 10:08:42;;;;;;;24.85;16.20;;;9.40;99.90;;;;;;4974554;28;20069;-80
2023/03/20 10:11:29;;;;;;;22.35;15.70;;;9.50;99.90;;;;;;4975310;28;20034;-81
2023/03/20 10:14:11;;;;;;;25.67;15.88;;;9.40;99.90;;;;;;4937702;28;20031;-81
2023/03/20 10:16:49;;;;;;;21.35;14.85;;;9.50;99.90;;;;;;4972749;28;20217;-80
2023/03/20 10:19:49;;;;;;;23.80;15.68;;;9.60;99.90;;;;;;4952513;28;20054;-82
2023/03/20 10:22:28;;;;;;;22.20;15.02;;;9.60;99.90;;;;;;4970663;28;20046;-80
2023/03/20 10:25:15;;;;;;;21.60;15.50;;;9.60;99.90;;;;;;4967934;28;20042;-79
2023/03/20 10:27:50;;;;;;;23.17;14.57;;;9.60;99.90;;;;;;4980395;28;20042;-81
2023/03/20 10:30:40;;;;;;;22.40;15.30;;;9.70;99.90;;;;;;4966822;28;20038;-81
2023/03/20 10:33:26;;;;;;;20.60;14.77;;;9.70;99.90;;;;;;4985462;28;20019;-81
2023/03/20 10:35:55;;;;;;;21.88;14.88;;;9.70;99.90;;;;;;4959491;28;20061;-82
2023/03/20 10:38:44;;;;;;;21.55;14.60;;;9.70;99.90;;;;;;4963457;28;20058;-82
2023/03/20 10:41:22;;;;;;;22.80;15.10;;;9.70;99.90;;;;;;4936894;28;20027;-83
2023/03/20 10:43:49;;;;;;;22.05;15.05;;;9.70;99.90;;;;;;4967401;28;20101;-80
2023/03/20 10:46:26;;;;;;;19.85;14.32;;;9.70;99.90;;;;;;4942606;28;20046;-81
2023/03/20 10:49:10;;;;;;;19.92;14.50;;;9.70;99.90;;;;;;4953631;28;20052;-80
2023/03/20 10:51:43;;;;;;;22.60;15.60;;;9.70;99.90;;;;;;4962624;28;20058;-80
2023/03/20 10:54:21;;;;;;;22.45;15.60;;;9.70;99.90;;;;;;4963362;28;20494;-82
2023/03/20 10:56:48;;;;;;;19.55;14.70;;;9.80;99.90;;;;;;4960024;28;20107;-81
2023/03/20 10:59:26;;;;;;;23.33;14.95;;;9.90;99.90;;;;;;4955387;28;20045;-81
2023/03/20 11:01:52;;;;;;;19.38;14.10;;;9.90;99.90;;;;;;4975786;28;20045;-79
2023/03/20 11:04:18;;;;;;;21.52;14.70;;;9.90;99.90;;;;;;4952118;28;20043;-79
2023/03/20 11:06:53;;;;;;;18.67;13.55;;;9.80;99.90;;;;;;4975405;28;20026;-79
2023/03/20 11:09:22;;;;;;;23.48;14.35;;;9.90;99.90;;;;;;4989952;28;20030;-80
2023/03/20 11:11:50;;;;;;;20.73;14.70;;;9.90;99.90;;;;;;4975594;28;20038;-80
2023/03/20 11:14:22;;;;;;;20.13;14.23;;;9.80;99.90;;;;;;4982045;28;20038;-79
2023/03/20 11:16:51;;;;;;;21.48;14.60;;;9.80;99.90;;;;;;4971993;28;20599;-81
2023/03/20 11:19:20;;;;;;;21.00;14.68;;;9.80;99.90;;;;;;4936301;29;20031;-79
2023/03/20 11:21:54;;;;;;;19.33;14.77;;;9.80;99.90;;;;;;4975404;28;20046;-81
2023/03/20 11:24:39;;;;;;;19.23;13.38;;;9.80;99.90;;;;;;4975740;28;20038;-80
2023/03/20 11:27:18;;;;;;;21.38;14.77;;;9.80;99.90;;;;;;4979237;28;20043;-81
2023/03/20 11:29:47;;;;;;;19.10;14.52;;;9.80;99.90;;;;;;4989852;28;20203;-79
2023/03/20 11:32:35;;;;;;;18.92;13.90;;;9.90;99.90;;;;;;4956385;28;20066;-79
2023/03/20 11:35:29;;;;;;;19.33;13.15;;;9.90;99.90;;;;;;4980025;28;20098;-80
2023/03/20 11:38:19;;;;;;;17.17;12.63;;;10.00;99.90;;;;;;4975641;28;20483;-80
2023/03/20 11:40:47;;;;;;;20.13;13.50;;;10.00;99.90;;;;;;4975544;28;20022;-81
2023/03/20 11:43:21;;;;;;;16.90;12.77;;;10.00;99.90;;;;;;4970536;28;20085;-80
2023/03/20 11:45:59;;;;;;;16.92;12.48;;;10.00;99.90;;;;;;4970467;28;20111;-80
2023/03/20 11:48:45;;;;;;;17.35;13.07;;;10.00;99.90;;;;;;4965401;28;20034;-80
2023/03/20 11:51:18;;;;;;;16.50;12.10;;;9.90;99.90;;;;;;4958466;28;20039;-81
2023/03/20 11:53:47;;;;;;;15.30;11.55;;;10.00;99.90;;;;;;4937234;28;20490;-80
2023/03/20 11:56:20;;;;;;;18.40;12.02;;;10.00;99.90;;;;;;4939622;28;20031;-80
2023/03/20 11:59:10;;;;;;;16.15;11.80;;;10.00;99.90;;;;;;4956146;28;20034;-80
2023/03/20 12:01:49;;;;;;;15.23;11.07;;;10.10;99.90;;;;;;4952909;28;20042;-80
2023/03/20 12:04:24;;;;;;;14.57;10.02;;;10.10;99.90;;;;;;4983666;28;20026;-82
2023/03/20 12:07:26;;;;;;;13.07;10.18;;;10.10;99.90;;;;;;4963474;28;20451;-80
2023/03/20 12:09:51;;;;;;;13.35;9.88;;;10.20;99.90;;;;;;4930980;28;20039;-81
2023/03/20 12:12:44;;;;;;;14.50;9.98;;;10.20;99.90;;;;;;4974542;28;20487;-81
2023/03/20 12:15:29;;;;;;;14.43;9.52;;;10.20;99.90;;;;;;4971613;28;20569;-80
2023/03/20 12:18:15;;;;;;;14.23;8.93;;;10.30;99.90;;;;;;4969497;28;20567;-80
2023/03/20 12:20:49;;;;;;;11.68;8.63;;;10.40;99.90;;;;;;4966771;28;20045;-81
2023/03/20 12:23:27;;;;;;;10.70;8.20;;;10.50;99.90;;;;;;4960813;28;20019;-81
2023/03/20 12:26:11;;;;;;;10.07;7.60;;;10.70;99.90;;;;;;4981362;28;20026;-80
2023/03/20 12:28:46;;;;;;;9.82;7.95;;;10.90;99.90;;;;;;4985316;28;20034;-82
2023/03/20 12:31:45;;;;;;;9.90;7.35;;;11.10;99.90;;;;;;4983391;28;20037;-79
2023/03/20 12:34:31;;;;;;;8.10;6.70;;;11.20;99.90;;;;;;4938348;28;20038;-78
2023/03/20 12:36:56;;;;;;;8.52;6.85;;;11.40;99.90;;;;;;4950889;28;20069;-79
2023/03/20 12:39:37;;;;;;;9.15;6.95;;;11.60;99.90;;;;;;4969839;28;20035;-81
2023/03/20 12:42:33;;;;;;;8.30;6.65;;;11.70;99.90;;;;;;4946887;28;20030;-80
2023/03/20 12:45:05;;;;;;;7.00;6.03;;;11.70;99.90;;;;;;4973729;28;20499;-80
2023/03/20 12:47:49;;;;;;;7.88;6.28;;;11.80;99.90;;;;;;4964471;28;20031;-78
2023/03/20 12:50:37;;;;;;;7.78;5.63;;;11.80;99.90;;;;;;4955303;28;20498;-82
2023/03/20 12:53:14;;;;;;;6.57;5.75;;;11.70;99.90;;;;;;4948255;28;20153;-82
2023/03/20 12:56:11;;;;;;;6.07;5.47;;;11.70;99.90;;;;;;4966252;28;20030;-81
2023/03/20 12:59:11;;;;;;;7.25;5.78;;;11.70;99.90;;;;;;4966807;28;20579;-81
2023/03/20 13:01:57;;;;;;;6.10;5.50;;;11.60;99.90;;;;;;4942559;28;20498;-80
2023/03/20 13:04:44;;;;;;;6.07;5.30;;;11.70;99.90;;;;;;4957250;28;20073;-82
2023/03/20 13:07:19;;;;;;;6.13;4.85;;;11.70;99.90;;;;;;4969478;28;20030;-82
2023/03/20 13:10:00;;;;;;;6.60;5.35;;;11.70;99.90;;;;;;4956107;28;20118;-79
2023/03/20 13:12:36;;;;;;;6.45;5.43;;;11.70;99.90;;;;;;4937401;28;20045;-80
2023/03/20 13:15:14;;;;;;;7.53;5.28;;;11.60;99.90;;;;;;4973960;28;20034;-80
2023/03/20 13:18:02;;;;;;;4.82;4.32;;;11.60;99.90;;;;;;4970608;28;20026;-79
2023/03/20 13:20:32;;;;;;;7.03;5.47;;;11.60;99.90;;;;;;4971543;28;20473;-79